Airfield :
LOGIN :

Register | Disclaimer

   EN    FR    IT 

 










Legend :    VFR   Marginal VFR   IFR   Intensive IFR   Very Intensive IFR
Visi :
Ceiling :
>= 8 km
>= 3000ft
5 to 8 km
1000 to 3000 ft
1500m to 5 km
500 to 1000 ft
800 to 1500m
200 to 500 ft
< 800m
< 200 ft
Symbols :   Thunderstorms  Fog  Heavy snow  Heavy precipitations  Wind > 20 kt
SIGMETs :     Misc.  Thunderstorms  Icing  Turbulence  Mountain Waves  Volcanic Ashes







- Airport Elevation : 659 ft
- IATA code : LGG


EBLG - Liège

CURRENT METAR :
  • 201620Z 16008KT 9999 BKN024 01/00 Q0998 NOSIG

EXPIRED METARs :
  • 201550Z 15006KT 9999 BKN027 01/00 Q0998 NOSIG
  • 201520Z 14008KT 7000 -DZ SCT027 BKN040 01/00 Q0998 TEMPO 3000 RASN BKN006
  • 201450Z 14007KT 2900 -SN FEW006 BKN010 00/M00 Q0998 TEMPO 3000 RASN BKN006
  • 201420Z 14006KT 1400 R22L/1900N R22R/P2000N R04R/0750N -SN FEW002 BKN004 00/M00 Q0999 TEMPO 1200 RASN BKN003
  • 201350Z 13005KT 1500 R22L/P2000N R22R/P2000N R04R/1400D -SN FEW002 BKN004 00/M00 Q0999 TEMPO 2000 RASN BKN003

TAF TAF EBLG
Valid from the 20 at 12:00 until the 21 at 18:00 UTC


201120Z 2012/2118 18007KT 7000 BKN010
TEMPO 2012/2101 3200 SNRA RADZ BKN005
PROB40
TEMPO 2014/2101 1800 RADZ BKN003
BECMG 2101/2103 SCT013
PROB30
TEMPO 2103/2109 3800 BR BKN005
No reported NOTAMs for that airfield.
2 SIGMETs reported for the Brussels FIR (EBBU) :
 
Severe icing
EBBU SIGMET 04 VALID 201407/201700 EBBR
EBBU BRUSSELS FIR SEV ICE FCST E OF E004 FL025/100 MOV E WKN=
Severe turbulence
EBBU SIGMET 03 VALID 201400/201800 EBBR
EBBU BRUSSELS FIR SEV TURB FCST ENTIRE FIR FL180/310 MOV ENE NC=



MET'MAP, your aeronautical weather chart ! - Copyright ORBIFLY December 2007 - Disclaimer

ORBIFLY MET'MAP TEAM :

Programming & Development : Alexandra Zaïnal
Concept & Development : Baudouin d'Aumeries
Co-Development & Prog : Marc-Olivier Méhu
Technical & hardware support : Manuel Goepfert

Contact : metmap@orbifly.com




SOURCES & CREDITS :

   NOAA